sensor_id;sensor_type;location;lat;lon;timestamp;P1;durP1;ratioP1;P2;durP2;ratioP2
9972;SDS011;5027;53.560;10.062;2024-01-11T00:00:36;20.83;;;18.63;;
9972;SDS011;5027;53.560;10.062;2024-01-11T00:03:03;19.57;;;17.57;;
9972;SDS011;5027;53.560;10.062;2024-01-11T00:05:30;19.43;;;17.47;;
9972;SDS011;5027;53.560;10.062;2024-01-11T00:07:56;19.90;;;17.90;;
9972;SDS011;5027;53.560;10.062;2024-01-11T00:10:25;18.87;;;16.97;;
9972;SDS011;5027;53.560;10.062;2024-01-11T00:12:51;19.83;;;17.80;;
9972;SDS011;5027;53.560;10.062;2024-01-11T00:15:18;21.53;;;18.40;;
9972;SDS011;5027;53.560;10.062;2024-01-11T00:17:45;20.43;;;18.43;;
9972;SDS011;5027;53.560;10.062;2024-01-11T00:20:12;21.73;;;19.47;;
9972;SDS011;5027;53.560;10.062;2024-01-11T00:22:39;20.57;;;18.37;;
9972;SDS011;5027;53.560;10.062;2024-01-11T00:25:06;22.30;;;19.90;;
9972;SDS011;5027;53.560;10.062;2024-01-11T00:27:33;21.73;;;19.43;;
9972;SDS011;5027;53.560;10.062;2024-01-11T00:29:59;20.87;;;18.67;;
9972;SDS011;5027;53.560;10.062;2024-01-11T00:32:26;21.27;;;18.97;;
9972;SDS011;5027;53.560;10.062;2024-01-11T00:34:53;22.27;;;19.93;;
9972;SDS011;5027;53.560;10.062;2024-01-11T00:37:20;23.23;;;20.73;;
9972;SDS011;5027;53.560;10.062;2024-01-11T00:39:46;23.43;;;21.00;;
9972;SDS011;5027;53.560;10.062;2024-01-11T00:42:13;23.73;;;21.17;;
9972;SDS011;5027;53.560;10.062;2024-01-11T00:44:40;21.63;;;19.33;;
9972;SDS011;5027;53.560;10.062;2024-01-11T00:47:07;21.43;;;19.10;;
9972;SDS011;5027;53.560;10.062;2024-01-11T00:49:34;20.53;;;18.47;;
9972;SDS011;5027;53.560;10.062;2024-01-11T00:52:02;21.60;;;19.23;;
9972;SDS011;5027;53.560;10.062;2024-01-11T00:54:28;22.53;;;19.83;;
9972;SDS011;5027;53.560;10.062;2024-01-11T00:56:56;23.20;;;19.47;;
9972;SDS011;5027;53.560;10.062;2024-01-11T00:59:22;23.60;;;20.33;;
9972;SDS011;5027;53.560;10.062;2024-01-11T01:01:49;23.60;;;20.73;;
9972;SDS011;5027;53.560;10.062;2024-01-11T01:04:16;22.10;;;19.67;;
9972;SDS011;5027;53.560;10.062;2024-01-11T01:06:43;21.37;;;19.07;;
9972;SDS011;5027;53.560;10.062;2024-01-11T01:09:10;23.47;;;20.23;;
9972;SDS011;5027;53.560;10.062;2024-01-11T01:11:37;24.10;;;21.50;;
9972;SDS011;5027;53.560;10.062;2024-01-11T01:14:04;22.20;;;19.80;;
9972;SDS011;5027;53.560;10.062;2024-01-11T01:16:31;22.70;;;19.97;;
9972;SDS011;5027;53.560;10.062;2024-01-11T01:18:58;23.43;;;19.50;;
9972;SDS011;5027;53.560;10.062;2024-01-11T01:21:25;22.87;;;20.47;;
9972;SDS011;5027;53.560;10.062;2024-01-11T01:23:51;24.33;;;21.30;;
9972;SDS011;5027;53.560;10.062;2024-01-11T01:26:18;24.17;;;21.57;;
9972;SDS011;5027;53.560;10.062;2024-01-11T01:28:46;23.93;;;21.20;;
9972;SDS011;5027;53.560;10.062;2024-01-11T01:31:13;24.50;;;21.33;;
9972;SDS011;5027;53.560;10.062;2024-01-11T01:33:40;23.33;;;20.07;;
9972;SDS011;5027;53.560;10.062;2024-01-11T01:36:08;21.57;;;19.27;;
9972;SDS011;5027;53.560;10.062;2024-01-11T01:38:38;20.73;;;18.53;;
9972;SDS011;5027;53.560;10.062;2024-01-11T01:41:05;20.53;;;18.33;;
9972;SDS011;5027;53.560;10.062;2024-01-11T01:43:32;20.37;;;18.17;;
9972;SDS011;5027;53.560;10.062;2024-01-11T01:45:59;19.57;;;17.13;;
9972;SDS011;5027;53.560;10.062;2024-01-11T01:48:26;17.73;;;15.90;;
9972;SDS011;5027;53.560;10.062;2024-01-11T01:50:54;19.20;;;17.20;;
9972;SDS011;5027;53.560;10.062;2024-01-11T01:53:21;18.10;;;15.80;;
9972;SDS011;5027;53.560;10.062;2024-01-11T01:55:50;19.53;;;17.17;;
9972;SDS011;5027;53.560;10.062;2024-01-11T01:58:19;18.90;;;16.53;;
9972;SDS011;5027;53.560;10.062;2024-01-11T02:00:47;17.97;;;16.07;;
9972;SDS011;5027;53.560;10.062;2024-01-11T02:03:16;17.90;;;16.00;;
9972;SDS011;5027;53.560;10.062;2024-01-11T02:05:43;17.63;;;15.73;;
9972;SDS011;5027;53.560;10.062;2024-01-11T02:08:12;18.53;;;16.60;;
9972;SDS011;5027;53.560;10.062;2024-01-11T02:10:43;17.43;;;15.53;;
9972;SDS011;5027;53.560;10.062;2024-01-11T02:13:12;18.77;;;16.77;;
9972;SDS011;5027;53.560;10.062;2024-01-11T02:15:39;21.00;;;18.27;;
9972;SDS011;5027;53.560;10.062;2024-01-11T02:18:06;20.03;;;17.93;;
9972;SDS011;5027;53.560;10.062;2024-01-11T02:20:33;18.87;;;16.87;;
9972;SDS011;5027;53.560;10.062;2024-01-11T02:23:01;20.47;;;17.77;;
9972;SDS011;5027;53.560;10.062;2024-01-11T02:25:34;19.90;;;17.67;;
9972;SDS011;5027;53.560;10.062;2024-01-11T02:28:01;19.87;;;17.77;;
9972;SDS011;5027;53.560;10.062;2024-01-11T02:30:28;20.30;;;18.10;;
9972;SDS011;5027;53.560;10.062;2024-01-11T02:32:55;21.83;;;18.57;;
9972;SDS011;5027;53.560;10.062;2024-01-11T02:35:23;21.33;;;18.43;;
9972;SDS011;5027;53.560;10.062;2024-01-11T02:37:51;21.50;;;18.97;;
9972;SDS011;5027;53.560;10.062;2024-01-11T02:40:18;21.17;;;18.87;;
9972;SDS011;5027;53.560;10.062;2024-01-11T02:42:47;21.90;;;19.60;;
9972;SDS011;5027;53.560;10.062;2024-01-11T02:45:14;23.90;;;19.57;;
9972;SDS011;5027;53.560;10.062;2024-01-11T02:47:40;23.30;;;20.80;;
9972;SDS011;5027;53.560;10.062;2024-01-11T02:50:08;22.80;;;19.97;;
9972;SDS011;5027;53.560;10.062;2024-01-11T02:52:35;23.07;;;20.67;;
9972;SDS011;5027;53.560;10.062;2024-01-11T02:55:02;21.60;;;19.33;;
9972;SDS011;5027;53.560;10.062;2024-01-11T02:57:28;22.37;;;20.03;;
9972;SDS011;5027;53.560;10.062;2024-01-11T02:59:55;25.60;;;22.33;;
9972;SDS011;5027;53.560;10.062;2024-01-11T03:02:22;25.13;;;22.43;;
9972;SDS011;5027;53.560;10.062;2024-01-11T03:04:49;25.97;;;22.70;;
9972;SDS011;5027;53.560;10.062;2024-01-11T03:07:16;25.63;;;22.83;;
9972;SDS011;5027;53.560;10.062;2024-01-11T03:09:42;26.37;;;22.90;;
9972;SDS011;5027;53.560;10.062;2024-01-11T03:12:09;27.00;;;23.10;;
9972;SDS011;5027;53.560;10.062;2024-01-11T03:14:36;26.90;;;23.50;;
9972;SDS011;5027;53.560;10.062;2024-01-11T03:17:03;26.53;;;23.47;;
9972;SDS011;5027;53.560;10.062;2024-01-11T03:19:31;27.10;;;22.50;;
9972;SDS011;5027;53.560;10.062;2024-01-11T03:21:57;26.37;;;23.43;;
9972;SDS011;5027;53.560;10.062;2024-01-11T03:24:24;24.83;;;21.63;;
9972;SDS011;5027;53.560;10.062;2024-01-11T03:26:51;25.07;;;22.17;;
9972;SDS011;5027;53.560;10.062;2024-01-11T03:29:17;25.53;;;21.07;;
9972;SDS011;5027;53.560;10.062;2024-01-11T03:31:44;23.63;;;21.13;;
9972;SDS011;5027;53.560;10.062;2024-01-11T03:34:11;22.27;;;19.80;;
9972;SDS011;5027;53.560;10.062;2024-01-11T03:36:39;24.30;;;20.70;;
9972;SDS011;5027;53.560;10.062;2024-01-11T03:39:06;25.80;;;22.40;;
9972;SDS011;5027;53.560;10.062;2024-01-11T03:41:33;25.93;;;22.27;;
9972;SDS011;5027;53.560;10.062;2024-01-11T03:43:59;24.20;;;21.03;;
9972;SDS011;5027;53.560;10.062;2024-01-11T03:46:27;23.87;;;21.23;;
9972;SDS011;5027;53.560;10.062;2024-01-11T03:48:53;23.97;;;21.37;;
9972;SDS011;5027;53.560;10.062;2024-01-11T03:51:22;6.33;;;5.73;;
9972;SDS011;5027;53.560;10.062;2024-01-11T03:53:48;24.03;;;21.43;;
9972;SDS011;5027;53.560;10.062;2024-01-11T03:56:15;23.50;;;20.97;;
9972;SDS011;5027;53.560;10.062;2024-01-11T03:58:42;27.23;;;22.47;;
9972;SDS011;5027;53.560;10.062;2024-01-11T04:01:11;19.00;;;17.03;;
9972;SDS011;5027;53.560;10.062;2024-01-11T04:03:38;23.43;;;20.93;;
9972;SDS011;5027;53.560;10.062;2024-01-11T04:06:05;25.57;;;22.87;;
9972;SDS011;5027;53.560;10.062;2024-01-11T04:08:32;25.40;;;22.23;;
9972;SDS011;5027;53.560;10.062;2024-01-11T04:11:03;24.87;;;22.27;;
9972;SDS011;5027;53.560;10.062;2024-01-11T04:13:32;25.00;;;22.27;;
9972;SDS011;5027;53.560;10.062;2024-01-11T04:16:03;25.93;;;23.13;;
9972;SDS011;5027;53.560;10.062;2024-01-11T04:18:31;24.67;;;22.07;;
9972;SDS011;5027;53.560;10.062;2024-01-11T04:20:58;26.83;;;23.93;;
9972;SDS011;5027;53.560;10.062;2024-01-11T04:23:25;26.63;;;23.63;;
9972;SDS011;5027;53.560;10.062;2024-01-11T04:25:52;26.70;;;23.87;;
9972;SDS011;5027;53.560;10.062;2024-01-11T04:28:18;28.77;;;25.67;;
9972;SDS011;5027;53.560;10.062;2024-01-11T04:30:45;30.60;;;27.10;;
9972;SDS011;5027;53.560;10.062;2024-01-11T04:33:12;30.63;;;26.73;;
9972;SDS011;5027;53.560;10.062;2024-01-11T04:35:39;32.60;;;28.03;;
9972;SDS011;5027;53.560;10.062;2024-01-11T04:38:06;34.73;;;28.43;;
9972;SDS011;5027;53.560;10.062;2024-01-11T04:40:33;36.07;;;30.07;;
9972;SDS011;5027;53.560;10.062;2024-01-11T04:42:59;38.57;;;31.87;;
9972;SDS011;5027;53.560;10.062;2024-01-11T04:45:26;41.27;;;33.43;;
9972;SDS011;5027;53.560;10.062;2024-01-11T04:47:53;43.50;;;34.63;;
9972;SDS011;5027;53.560;10.062;2024-01-11T04:50:20;43.33;;;34.23;;
9972;SDS011;5027;53.560;10.062;2024-01-11T04:52:48;41.77;;;34.23;;
9972;SDS011;5027;53.560;10.062;2024-01-11T04:55:15;45.47;;;37.60;;
9972;SDS011;5027;53.560;10.062;2024-01-11T04:57:42;43.67;;;36.47;;
9972;SDS011;5027;53.560;10.062;2024-01-11T05:00:08;42.97;;;35.70;;
9972;SDS011;5027;53.560;10.062;2024-01-11T05:02:36;45.90;;;37.47;;
9972;SDS011;5027;53.560;10.062;2024-01-11T05:05:03;44.40;;;35.90;;
9972;SDS011;5027;53.560;10.062;2024-01-11T05:07:30;43.53;;;36.43;;
9972;SDS011;5027;53.560;10.062;2024-01-11T05:09:56;42.83;;;36.03;;
9972;SDS011;5027;53.560;10.062;2024-01-11T05:12:23;44.20;;;36.30;;
9972;SDS011;5027;53.560;10.062;2024-01-11T05:14:50;43.87;;;36.70;;
9972;SDS011;5027;53.560;10.062;2024-01-11T05:17:16;41.60;;;35.93;;
9972;SDS011;5027;53.560;10.062;2024-01-11T05:19:43;41.70;;;34.70;;
9972;SDS011;5027;53.560;10.062;2024-01-11T05:22:10;43.40;;;37.20;;
9972;SDS011;5027;53.560;10.062;2024-01-11T05:24:37;45.20;;;38.00;;
9972;SDS011;5027;53.560;10.062;2024-01-11T05:27:04;42.47;;;35.30;;
9972;SDS011;5027;53.560;10.062;2024-01-11T05:29:30;42.57;;;36.27;;
9972;SDS011;5027;53.560;10.062;2024-01-11T05:31:58;41.53;;;35.23;;
9972;SDS011;5027;53.560;10.062;2024-01-11T05:34:25;40.23;;;34.07;;
9972;SDS011;5027;53.560;10.062;2024-01-11T05:36:52;40.00;;;33.47;;
9972;SDS011;5027;53.560;10.062;2024-01-11T05:39:18;39.13;;;32.97;;
9972;SDS011;5027;53.560;10.062;2024-01-11T05:41:45;38.13;;;33.37;;
9972;SDS011;5027;53.560;10.062;2024-01-11T05:44:12;34.40;;;30.60;;
9972;SDS011;5027;53.560;10.062;2024-01-11T05:46:39;35.60;;;31.33;;
9972;SDS011;5027;53.560;10.062;2024-01-11T05:49:05;35.67;;;30.87;;
9972;SDS011;5027;53.560;10.062;2024-01-11T05:51:32;35.30;;;30.40;;
9972;SDS011;5027;53.560;10.062;2024-01-11T05:53:59;32.57;;;28.77;;
9972;SDS011;5027;53.560;10.062;2024-01-11T05:56:25;32.10;;;27.57;;
9972;SDS011;5027;53.560;10.062;2024-01-11T05:58:52;30.87;;;27.37;;
9972;SDS011;5027;53.560;10.062;2024-01-11T06:01:19;31.97;;;27.97;;
9972;SDS011;5027;53.560;10.062;2024-01-11T06:03:47;26.27;;;21.50;;
9972;SDS011;5027;53.560;10.062;2024-01-11T06:06:14;30.20;;;25.37;;
9972;SDS011;5027;53.560;10.062;2024-01-11T06:08:40;32.40;;;26.93;;
9972;SDS011;5027;53.560;10.062;2024-01-11T06:11:09;30.13;;;26.30;;
9972;SDS011;5027;53.560;10.062;2024-01-11T06:13:36;31.63;;;26.10;;
9972;SDS011;5027;53.560;10.062;2024-01-11T06:16:03;32.77;;;27.47;;
9972;SDS011;5027;53.560;10.062;2024-01-11T06:18:29;33.80;;;26.73;;
9972;SDS011;5027;53.560;10.062;2024-01-11T06:20:57;31.67;;;26.27;;
9972;SDS011;5027;53.560;10.062;2024-01-11T06:23:24;30.53;;;25.63;;
9972;SDS011;5027;53.560;10.062;2024-01-11T06:25:51;29.10;;;24.53;;
9972;SDS011;5027;53.560;10.062;2024-01-11T06:28:18;29.80;;;24.63;;
9972;SDS011;5027;53.560;10.062;2024-01-11T06:30:44;28.47;;;23.83;;
9972;SDS011;5027;53.560;10.062;2024-01-11T06:33:11;28.63;;;23.23;;
9972;SDS011;5027;53.560;10.062;2024-01-11T06:35:38;26.73;;;21.93;;
9972;SDS011;5027;53.560;10.062;2024-01-11T06:38:06;26.90;;;21.80;;
9972;SDS011;5027;53.560;10.062;2024-01-11T06:40:34;23.67;;;20.30;;
9972;SDS011;5027;53.560;10.062;2024-01-11T06:43:00;23.10;;;18.87;;
9972;SDS011;5027;53.560;10.062;2024-01-11T06:45:27;23.93;;;19.60;;
9972;SDS011;5027;53.560;10.062;2024-01-11T06:47:54;26.37;;;20.67;;
9972;SDS011;5027;53.560;10.062;2024-01-11T06:50:21;23.27;;;19.57;;
9972;SDS011;5027;53.560;10.062;2024-01-11T06:52:48;22.13;;;18.27;;
9972;SDS011;5027;53.560;10.062;2024-01-11T06:55:15;24.20;;;19.80;;
9972;SDS011;5027;53.560;10.062;2024-01-11T06:57:42;23.47;;;19.63;;
9972;SDS011;5027;53.560;10.062;2024-01-11T07:00:08;24.20;;;17.97;;
9972;SDS011;5027;53.560;10.062;2024-01-11T07:02:36;24.03;;;18.90;;
9972;SDS011;5027;53.560;10.062;2024-01-11T07:05:03;27.17;;;19.43;;
9972;SDS011;5027;53.560;10.062;2024-01-11T07:07:30;25.23;;;19.00;;
9972;SDS011;5027;53.560;10.062;2024-01-11T07:09:56;25.10;;;18.23;;
9972;SDS011;5027;53.560;10.062;2024-01-11T07:12:23;21.10;;;15.03;;
9972;SDS011;5027;53.560;10.062;2024-01-11T07:14:50;18.40;;;13.77;;
9972;SDS011;5027;53.560;10.062;2024-01-11T07:17:17;20.43;;;15.07;;
9972;SDS011;5027;53.560;10.062;2024-01-11T07:19:44;23.20;;;15.73;;
9972;SDS011;5027;53.560;10.062;2024-01-11T07:22:11;21.07;;;14.77;;
9972;SDS011;5027;53.560;10.062;2024-01-11T07:24:40;22.90;;;15.87;;
9972;SDS011;5027;53.560;10.062;2024-01-11T07:27:07;19.53;;;14.00;;
9972;SDS011;5027;53.560;10.062;2024-01-11T07:29:34;22.83;;;14.53;;
9972;SDS011;5027;53.560;10.062;2024-01-11T07:32:01;20.60;;;14.90;;
9972;SDS011;5027;53.560;10.062;2024-01-11T07:34:30;22.43;;;16.03;;
9972;SDS011;5027;53.560;10.062;2024-01-11T07:36:58;22.57;;;15.60;;
9972;SDS011;5027;53.560;10.062;2024-01-11T07:39:25;23.20;;;15.50;;
9972;SDS011;5027;53.560;10.062;2024-01-11T07:41:51;23.63;;;16.30;;
9972;SDS011;5027;53.560;10.062;2024-01-11T07:44:18;26.20;;;15.50;;
9972;SDS011;5027;53.560;10.062;2024-01-11T07:46:46;24.47;;;15.73;;
9972;SDS011;5027;53.560;10.062;2024-01-11T07:49:20;25.30;;;16.37;;
9972;SDS011;5027;53.560;10.062;2024-01-11T07:51:47;25.90;;;15.27;;
9972;SDS011;5027;53.560;10.062;2024-01-11T07:54:14;23.23;;;16.03;;
9972;SDS011;5027;53.560;10.062;2024-01-11T07:56:41;23.93;;;15.77;;
9972;SDS011;5027;53.560;10.062;2024-01-11T07:59:08;24.47;;;15.43;;
9972;SDS011;5027;53.560;10.062;2024-01-11T08:01:40;23.97;;;14.67;;
9972;SDS011;5027;53.560;10.062;2024-01-11T08:04:07;20.73;;;14.80;;
9972;SDS011;5027;53.560;10.062;2024-01-11T08:19:56;19.97;;;12.30;;
9972;SDS011;5027;53.560;10.062;2024-01-11T08:22:36;20.20;;;13.10;;
9972;SDS011;5027;53.560;10.062;2024-01-11T08:25:26;18.67;;;12.30;;
9972;SDS011;5027;53.560;10.062;2024-01-11T08:27:53;17.37;;;11.73;;
9972;SDS011;5027;53.560;10.062;2024-01-11T08:30:30;19.73;;;13.57;;
9972;SDS011;5027;53.560;10.062;2024-01-11T08:32:58;19.73;;;13.43;;
9972;SDS011;5027;53.560;10.062;2024-01-11T08:35:24;17.03;;;12.17;;
9972;SDS011;5027;53.560;10.062;2024-01-11T08:37:51;19.93;;;13.57;;
9972;SDS011;5027;53.560;10.062;2024-01-11T08:40:18;21.97;;;13.97;;
9972;SDS011;5027;53.560;10.062;2024-01-11T08:42:45;19.70;;;12.87;;
9972;SDS011;5027;53.560;10.062;2024-01-11T08:45:13;21.27;;;13.97;;
9972;SDS011;5027;53.560;10.062;2024-01-11T08:48:21;17.30;;;11.93;;
9972;SDS011;5027;53.560;10.062;2024-01-11T08:51:28;18.87;;;11.60;;
9972;SDS011;5027;53.560;10.062;2024-01-11T08:54:09;19.23;;;12.10;;
9972;SDS011;5027;53.560;10.062;2024-01-11T08:56:39;15.37;;;11.53;;
9972;SDS011;5027;53.560;10.062;2024-01-11T08:59:07;18.90;;;12.13;;
9972;SDS011;5027;53.560;10.062;2024-01-11T09:01:45;19.40;;;11.60;;
9972;SDS011;5027;53.560;10.062;2024-01-11T09:04:29;20.03;;;11.90;;
9972;SDS011;5027;53.560;10.062;2024-01-11T09:06:57;18.33;;;12.70;;
9972;SDS011;5027;53.560;10.062;2024-01-11T09:09:29;19.23;;;12.97;;
9972;SDS011;5027;53.560;10.062;2024-01-11T09:12:12;18.80;;;12.10;;
9972;SDS011;5027;53.560;10.062;2024-01-11T09:14:42;23.97;;;13.73;;
9972;SDS011;5027;53.560;10.062;2024-01-11T09:17:10;23.43;;;12.80;;
9972;SDS011;5027;53.560;10.062;2024-01-11T09:19:39;23.83;;;13.77;;
9972;SDS011;5027;53.560;10.062;2024-01-11T09:22:07;19.70;;;12.63;;
9972;SDS011;5027;53.560;10.062;2024-01-11T09:24:37;19.83;;;12.77;;
9972;SDS011;5027;53.560;10.062;2024-01-11T09:27:06;19.70;;;11.97;;
9972;SDS011;5027;53.560;10.062;2024-01-11T09:29:35;20.53;;;12.50;;
9972;SDS011;5027;53.560;10.062;2024-01-11T09:32:04;24.10;;;13.13;;
9972;SDS011;5027;53.560;10.062;2024-01-11T09:34:34;22.67;;;12.50;;
9972;SDS011;5027;53.560;10.062;2024-01-11T09:37:03;23.20;;;12.70;;
9972;SDS011;5027;53.560;10.062;2024-01-11T09:39:31;21.40;;;11.37;;
9972;SDS011;5027;53.560;10.062;2024-01-11T09:42:06;17.97;;;11.50;;
9972;SDS011;5027;53.560;10.062;2024-01-11T09:44:54;15.63;;;10.97;;
9972;SDS011;5027;53.560;10.062;2024-01-11T09:47:53;18.33;;;10.60;;
9972;SDS011;5027;53.560;10.062;2024-01-11T09:50:34;19.87;;;10.90;;
9972;SDS011;5027;53.560;10.062;2024-01-11T09:53:06;18.23;;;10.73;;
9972;SDS011;5027;53.560;10.062;2024-01-11T09:55:39;15.03;;;10.27;;
9972;SDS011;5027;53.560;10.062;2024-01-11T09:58:18;17.13;;;10.70;;
9972;SDS011;5027;53.560;10.062;2024-01-11T10:00:54;19.57;;;10.97;;
9972;SDS011;5027;53.560;10.062;2024-01-11T10:03:22;15.80;;;10.80;;
9972;SDS011;5027;53.560;10.062;2024-01-11T10:05:50;19.33;;;10.80;;
9972;SDS011;5027;53.560;10.062;2024-01-11T10:08:19;18.07;;;11.20;;
9972;SDS011;5027;53.560;10.062;2024-01-11T10:10:48;18.53;;;10.27;;
9972;SDS011;5027;53.560;10.062;2024-01-11T10:13:15;16.57;;;10.57;;
9972;SDS011;5027;53.560;10.062;2024-01-11T10:15:42;23.90;;;11.30;;
9972;SDS011;5027;53.560;10.062;2024-01-11T10:18:13;19.67;;;12.80;;
9972;SDS011;5027;53.560;10.062;2024-01-11T10:20:41;23.53;;;12.37;;
9972;SDS011;5027;53.560;10.062;2024-01-11T10:23:33;21.60;;;12.47;;
9972;SDS011;5027;53.560;10.062;2024-01-11T10:26:05;24.57;;;13.30;;
9972;SDS011;5027;53.560;10.062;2024-01-11T10:28:43;25.33;;;14.43;;
9972;SDS011;5027;53.560;10.062;2024-01-11T10:31:11;31.70;;;16.30;;
9972;SDS011;5027;53.560;10.062;2024-01-11T10:33:41;23.73;;;14.70;;
9972;SDS011;5027;53.560;10.062;2024-01-11T10:36:11;25.23;;;13.53;;
9972;SDS011;5027;53.560;10.062;2024-01-11T10:38:42;25.50;;;15.60;;
9972;SDS011;5027;53.560;10.062;2024-01-11T10:41:20;25.13;;;15.50;;
9972;SDS011;5027;53.560;10.062;2024-01-11T10:43:59;24.37;;;14.53;;
9972;SDS011;5027;53.560;10.062;2024-01-11T10:46:54;19.53;;;13.73;;
9972;SDS011;5027;53.560;10.062;2024-01-11T10:49:25;22.67;;;15.20;;
9972;SDS011;5027;53.560;10.062;2024-01-11T10:52:02;21.97;;;15.27;;
9972;SDS011;5027;53.560;10.062;2024-01-11T10:54:33;24.97;;;15.63;;
9972;SDS011;5027;53.560;10.062;2024-01-11T10:57:34;23.93;;;15.97;;
9972;SDS011;5027;53.560;10.062;2024-01-11T11:00:04;24.17;;;16.00;;
9972;SDS011;5027;53.560;10.062;2024-01-11T11:02:32;24.27;;;15.50;;
9972;SDS011;5027;53.560;10.062;2024-01-11T11:05:06;22.40;;;14.90;;
9972;SDS011;5027;53.560;10.062;2024-01-11T11:07:48;24.57;;;15.90;;
9972;SDS011;5027;53.560;10.062;2024-01-11T11:10:30;27.83;;;15.80;;
9972;SDS011;5027;53.560;10.062;2024-01-11T11:12:57;23.67;;;15.57;;
9972;SDS011;5027;53.560;10.062;2024-01-11T11:15:27;21.63;;;15.37;;
9972;SDS011;5027;53.560;10.062;2024-01-11T11:17:54;24.47;;;16.83;;
9972;SDS011;5027;53.560;10.062;2024-01-11T11:20:22;27.97;;;16.03;;
9972;SDS011;5027;53.560;10.062;2024-01-11T11:23:10;22.40;;;16.37;;
9972;SDS011;5027;53.560;10.062;2024-01-11T11:25:40;25.80;;;16.17;;
9972;SDS011;5027;53.560;10.062;2024-01-11T11:28:07;27.07;;;16.93;;
9972;SDS011;5027;53.560;10.062;2024-01-11T11:30:37;29.00;;;17.77;;
9972;SDS011;5027;53.560;10.062;2024-01-11T11:33:08;27.97;;;17.83;;
9972;SDS011;5027;53.560;10.062;2024-01-11T11:35:43;27.00;;;17.27;;
9972;SDS011;5027;53.560;10.062;2024-01-11T11:38:23;25.10;;;17.77;;
9972;SDS011;5027;53.560;10.062;2024-01-11T11:40:52;17.30;;;8.37;;
9972;SDS011;5027;53.560;10.062;2024-01-11T11:43:20;22.87;;;15.83;;
9972;SDS011;5027;53.560;10.062;2024-01-11T11:45:49;23.83;;;16.57;;
9972;SDS011;5027;53.560;10.062;2024-01-11T11:51:18;25.07;;;17.60;;
9972;SDS011;5027;53.560;10.062;2024-01-11T11:53:47;26.73;;;20.57;;
9972;SDS011;5027;53.560;10.062;2024-01-11T11:56:16;26.93;;;18.50;;
9972;SDS011;5027;53.560;10.062;2024-01-11T11:58:45;27.60;;;19.47;;
9972;SDS011;5027;53.560;10.062;2024-01-11T12:01:13;26.83;;;17.67;;
9972;SDS011;5027;53.560;10.062;2024-01-11T12:03:41;23.33;;;17.33;;
9972;SDS011;5027;53.560;10.062;2024-01-11T12:06:09;24.63;;;17.43;;
9972;SDS011;5027;53.560;10.062;2024-01-11T12:08:37;24.97;;;17.50;;
9972;SDS011;5027;53.560;10.062;2024-01-11T12:11:07;22.40;;;16.27;;
9972;SDS011;5027;53.560;10.062;2024-01-11T12:13:34;25.53;;;16.17;;
9972;SDS011;5027;53.560;10.062;2024-01-11T12:16:02;21.27;;;15.77;;
9972;SDS011;5027;53.560;10.062;2024-01-11T12:18:29;28.07;;;16.80;;
9972;SDS011;5027;53.560;10.062;2024-01-11T12:20:56;22.83;;;16.63;;
9972;SDS011;5027;53.560;10.062;2024-01-11T12:23:23;15.50;;;7.20;;
9972;SDS011;5027;53.560;10.062;2024-01-11T12:25:50;22.97;;;16.37;;
9972;SDS011;5027;53.560;10.062;2024-01-11T12:28:17;24.97;;;17.47;;
9972;SDS011;5027;53.560;10.062;2024-01-11T12:30:44;23.03;;;16.90;;
9972;SDS011;5027;53.560;10.062;2024-01-11T12:33:11;22.90;;;17.37;;
9972;SDS011;5027;53.560;10.062;2024-01-11T12:35:39;24.23;;;16.77;;
9972;SDS011;5027;53.560;10.062;2024-01-11T12:38:06;24.43;;;17.07;;
9972;SDS011;5027;53.560;10.062;2024-01-11T12:40:33;25.53;;;16.73;;
9972;SDS011;5027;53.560;10.062;2024-01-11T12:43:01;24.27;;;17.10;;
9972;SDS011;5027;53.560;10.062;2024-01-11T12:45:29;26.67;;;17.90;;
9972;SDS011;5027;53.560;10.062;2024-01-11T12:47:58;26.77;;;17.90;;
9972;SDS011;5027;53.560;10.062;2024-01-11T12:50:27;23.00;;;16.47;;
9972;SDS011;5027;53.560;10.062;2024-01-11T12:53:10;26.23;;;18.13;;
9972;SDS011;5027;53.560;10.062;2024-01-11T12:55:44;25.37;;;17.60;;
9972;SDS011;5027;53.560;10.062;2024-01-11T12:58:23;26.07;;;16.37;;
9972;SDS011;5027;53.560;10.062;2024-01-11T13:00:52;20.30;;;16.73;;
9972;SDS011;5027;53.560;10.062;2024-01-11T13:03:20;23.23;;;17.77;;
9972;SDS011;5027;53.560;10.062;2024-01-11T13:05:47;22.87;;;17.20;;
9972;SDS011;5027;53.560;10.062;2024-01-11T13:08:15;24.77;;;17.13;;
9972;SDS011;5027;53.560;10.062;2024-01-11T13:10:45;26.67;;;17.50;;
9972;SDS011;5027;53.560;10.062;2024-01-11T13:13:14;22.80;;;17.20;;
9972;SDS011;5027;53.560;10.062;2024-01-11T13:15:40;23.00;;;17.47;;
9972;SDS011;5027;53.560;10.062;2024-01-11T13:18:07;25.83;;;17.27;;
9972;SDS011;5027;53.560;10.062;2024-01-11T13:20:34;26.93;;;16.87;;
9972;SDS011;5027;53.560;10.062;2024-01-11T13:23:11;21.87;;;16.13;;
9972;SDS011;5027;53.560;10.062;2024-01-11T13:25:40;24.53;;;17.40;;
9972;SDS011;5027;53.560;10.062;2024-01-11T13:28:08;25.90;;;17.90;;
9972;SDS011;5027;53.560;10.062;2024-01-11T13:30:35;25.87;;;17.63;;
9972;SDS011;5027;53.560;10.062;2024-01-11T13:33:02;25.53;;;16.80;;
9972;SDS011;5027;53.560;10.062;2024-01-11T13:35:30;26.27;;;16.80;;
9972;SDS011;5027;53.560;10.062;2024-01-11T13:37:57;26.17;;;17.23;;
9972;SDS011;5027;53.560;10.062;2024-01-11T13:40:23;21.57;;;16.23;;
9972;SDS011;5027;53.560;10.062;2024-01-11T13:42:50;24.57;;;16.37;;
9972;SDS011;5027;53.560;10.062;2024-01-11T13:45:17;24.27;;;16.10;;
9972;SDS011;5027;53.560;10.062;2024-01-11T13:47:44;27.43;;;18.10;;
9972;SDS011;5027;53.560;10.062;2024-01-11T13:50:10;23.07;;;16.27;;
9972;SDS011;5027;53.560;10.062;2024-01-11T13:52:38;24.77;;;16.37;;
9972;SDS011;5027;53.560;10.062;2024-01-11T13:55:05;23.63;;;16.47;;
9972;SDS011;5027;53.560;10.062;2024-01-11T13:57:33;24.33;;;17.27;;
9972;SDS011;5027;53.560;10.062;2024-01-11T14:00:00;24.63;;;16.27;;
9972;SDS011;5027;53.560;10.062;2024-01-11T14:02:27;28.47;;;17.00;;
9972;SDS011;5027;53.560;10.062;2024-01-11T14:04:53;23.50;;;17.03;;
9972;SDS011;5027;53.560;10.062;2024-01-11T14:07:20;26.70;;;16.47;;
9972;SDS011;5027;53.560;10.062;2024-01-11T14:09:47;23.47;;;16.23;;
9972;SDS011;5027;53.560;10.062;2024-01-11T14:12:14;23.53;;;15.87;;
9972;SDS011;5027;53.560;10.062;2024-01-11T14:14:42;23.37;;;15.57;;
9972;SDS011;5027;53.560;10.062;2024-01-11T14:17:09;24.27;;;16.23;;
9972;SDS011;5027;53.560;10.062;2024-01-11T14:19:37;23.87;;;15.83;;
9972;SDS011;5027;53.560;10.062;2024-01-11T14:22:04;22.70;;;15.73;;
9972;SDS011;5027;53.560;10.062;2024-01-11T14:24:31;24.97;;;16.57;;
9972;SDS011;5027;53.560;10.062;2024-01-11T14:27:02;26.13;;;16.30;;
9972;SDS011;5027;53.560;10.062;2024-01-11T14:29:30;25.67;;;15.83;;
9972;SDS011;5027;53.560;10.062;2024-01-11T14:31:56;22.87;;;15.97;;
9972;SDS011;5027;53.560;10.062;2024-01-11T14:34:23;22.37;;;15.20;;
9972;SDS011;5027;53.560;10.062;2024-01-11T14:36:53;24.20;;;15.13;;
9972;SDS011;5027;53.560;10.062;2024-01-11T14:39:20;24.43;;;15.77;;
9972;SDS011;5027;53.560;10.062;2024-01-11T14:41:49;27.23;;;16.40;;
9972;SDS011;5027;53.560;10.062;2024-01-11T14:44:16;23.23;;;15.73;;
9972;SDS011;5027;53.560;10.062;2024-01-11T14:46:42;28.30;;;15.80;;
9972;SDS011;5027;53.560;10.062;2024-01-11T14:49:09;20.63;;;14.00;;
9972;SDS011;5027;53.560;10.062;2024-01-11T14:51:36;22.70;;;14.27;;
9972;SDS011;5027;53.560;10.062;2024-01-11T14:54:03;18.97;;;14.20;;
9972;SDS011;5027;53.560;10.062;2024-01-11T14:56:30;19.27;;;12.93;;
9972;SDS011;5027;53.560;10.062;2024-01-11T14:58:57;21.77;;;13.37;;
9972;SDS011;5027;53.560;10.062;2024-01-11T15:01:24;19.80;;;13.93;;